Terminal Aerodrome Forecast
Issued by NWS Newport/Morehead City, NC

Home | Current Version | Previous Version | Graphics & Text | Print | Product List | Glossary On
Versions: 1 2 3 4 5 6 7 8 9 10 11 12 13 14 15 16
000
FTUS42 KMHX 231724
TAFEWN
TAF
KEWN 231724Z 2318/2418 13007KT P6SM SCT050
      TEMPO 2318/2321 BKN050
     FM240600 06002KT 5SM BR SCT070
     FM240900 00000KT 3SM BR SCT070
     FM241200 09006KT P6SM SCT050=

USA.gov is the U.S. government's official web portal to all federal, state and local government web resources and services.